ARBÚCIES





Hora UTC 17:50
Temperatura 12.8 ºC
Humedad 90.6 %
Presión 1008.0 hPa
Pluja 0.7 mm
Velocidad viento 2.2 km/h
Dirección viento SW
Radiación solar 0.0 W/m²

Datos diarios 2022-09-29



Hora UTC (invierno +1h; verano +2h)
Temperatura (ºC) Humedad (%) Presión (hPa) Velocidad viento (km/h) Precipitación (mm) Radiación solar (W/m²)
Hora UTC Aire Humedad Presión Vel. Dir. Vel. Max Dir. Intent. máx 5 min. Rad. Sol.
00:05 14.5 77.9 1010.0 5.3 SSW 9.9 SSW 0.0 0.0
00:10 14.5 77.9 1010.0 7.8 SW 11.6 SW 0.0 0.0
00:15 14.5 77.8 1010.0 8.2 SW 12.3 SW 0.0 0.0
00:20 14.5 77.8 1010.0 8.1 SSW 11.6 SSW 0.0 0.0
00:25 14.5 78.1 1010.0 7.3 SSW 10.6 SSW 0.0 0.0
00:30 14.4 78.6 1009.0 7.3 SSW 10.2 SSW 0.0 0.0
00:35 14.3 79.2 1009.0 7.4 SSW 11.6 SW 0.0 0.0
00:40 14.2 79.9 1009.0 7.6 SSW 10.6 SSW 0.0 0.0
00:45 14.1 80.7 1009.0 8.1 SSW 11.3 SSW 0.0 0.0
00:50 14.0 81.2 1009.0 7.5 SSW 9.5 SW 0.0 0.0
00:55 13.8 82.2 1010.0 7.5 SSW 9.9 SSW 0.0 0.0
01:00 13.6 83.3 1009.0 7.9 SSW 12.0 SW 0.0 0.0
01:05 13.6 83.9 1009.0 8.0 SW 12.0 SW 0.0 0.0
01:10 13.6 84.0 1009.0 9.3 SSW 14.8 SSW 0.0 0.0
01:15 13.6 83.6 1009.0 7.9 SW 11.6 SW 0.0 0.0
01:20 13.6 83.6 1009.0 7.2 SW 13.1 SW 0.0 0.0
01:25 13.4 83.7 1010.0 6.7 SW 10.2 SSW 0.0 0.0
01:30 13.3 84.7 1009.0 7.8 SW 11.6 SW 0.0 0.0
01:35 13.1 85.1 1009.0 6.0 SW 11.3 WSW 0.0 0.0
01:40 13.0 86.7 1009.0 6.8 SW 9.2 SW 0.0 0.0
01:45 12.9 87.8 1009.0 6.6 SW 8.5 SW 0.0 0.0
01:50 12.8 88.9 1009.0 7.4 SW 10.9 WSW 0.0 0.0
01:55 12.8 89.6 1010.0 6.9 SW 10.2 WSW 0.0 0.0
02:00 12.8 89.9 1009.0 6.6 SW 9.9 WSW 0.0 0.0
02:05 12.8 90.1 1009.0 6.7 SW 9.2 SW 0.0 0.0
02:10 12.8 90.3 1009.0 6.3 SW 9.5 SSW 0.0 0.0
02:15 12.8 90.0 1008.0 4.5 SW 7.1 SSW 0.0 0.0
02:20 12.7 90.1 1009.0 6.8 SW 9.2 SSW 0.0 0.0
02:25 12.8 90.4 1009.0 6.0 SW 9.2 SSW 0.0 0.0
02:30 12.7 90.6 1008.0 6.9 SW 10.9 SSW 0.0 0.0
02:35 12.7 91.0 1008.0 9.1 SW 12.0 SW 0.0 0.0
02:40 12.7 91.2 1008.0 7.4 SW 11.6 SSW 0.0 0.0
02:45 12.8 91.2 1008.0 8.6 SW 12.0 SSW 0.0 0.0
02:50 12.9 90.7 1008.0 7.7 SW 11.3 SSW 0.0 0.0
02:55 12.8 90.5 1009.0 5.0 SW 8.5 SSW 0.0 0.0
03:00 12.7 90.5 1008.0 3.1 SW 8.8 SW 0.0 0.0
03:05 12.6 90.8 1008.0 3.7 SW 5.3 SW 0.0 0.0
03:10 12.5 91.1 1008.0 5.9 SSW 8.8 SW 0.0 0.0
03:15 12.6 91.6 1008.0 8.0 SSW 11.6 SSW 0.0 0.0
03:20 12.8 91.1 1008.0 4.7 SW 9.2 SW 0.0 0.0
03:25 12.7 90.7 1009.0 0.0 SW 0.4 W 0.0 0.0
03:30 12.6 90.6 1008.0 4.0 SW 7.4 SSW 0.0 0.0
03:35 12.6 91.0 1008.0 6.3 SW 8.5 SSW 0.0 0.0
03:40 12.5 91.2 1008.0 6.6 SW 8.5 SSW 0.0 0.0
03:45 12.4 91.5 1008.0 6.1 SW 9.5 SSW 0.0 0.0
03:50 12.5 91.9 1008.0 6.3 SW 9.9 SW 0.0 0.0
03:55 12.5 91.9 1008.0 7.1 SW 9.2 SW 0.0 0.0
04:00 12.6 92.0 1008.0 6.8 SW 8.8 SW 0.0 0.0
04:05 12.6 92.0 1008.0 5.1 SSW 7.4 SW 0.0 0.0
04:10 12.6 91.7 1008.0 4.0 SW 5.3 SSW 0.0 0.0
04:15 12.4 91.6 1008.0 2.8 SSW 4.9 SW 0.0 0.0
04:20 12.2 91.6 1007.0 2.1 SW 3.9 SW 0.0 0.0
04:25 12.1 91.8 1008.0 0.9 SW 2.5 WSW 0.0 0.0
04:30 11.9 92.0 1008.0 0.1 NNW 1.4 NW 0.0 0.0
04:35 11.9 92.4 1008.0 0.0 E 0.4 NE 0.0 0.0
04:40 11.8 92.3 1007.0 0.6 WSW 3.2 W 0.0 0.0
04:45 11.7 92.6 1008.0 2.2 SSW 4.6 WSW 0.0 0.0
04:50 11.5 92.7 1007.0 4.2 SSW 5.6 SW 0.0 0.0
04:55 11.5 93.0 1008.0 3.3 SSW 4.9 SSW 0.0 0.0
05:00 11.5 93.1 1007.0 2.8 SW 6.0 S 0.0 0.0
05:05 11.5 93.4 1008.0 1.2 WSW 3.9 S 0.0 0.0
05:10 11.5 93.3 1007.0 1.0 SW 3.9 WSW 0.0 0.0
05:15 11.4 93.3 1008.0 0.6 W 3.2 WSW 0.0 0.0
05:20 11.3 93.4 1007.0 0.8 WNW 3.2 WSW 0.0 0.0
05:25 11.2 93.4 1008.0 0.0 WNW 0.4 WNW 0.0 0.0
05:30 11.1 93.5 1007.0 0.2 SW 2.1 SW 0.0 0.0
05:35 11.0 93.5 1007.0 0.0 SW 0.4 SSW 0.0 0.0
05:40 10.9 93.5 1007.0 0.0 WSW 0.4 W 0.0 0.5
05:45 10.9 93.8 1007.0 4.7 SSW 7.8 SSW 0.0 1.5
05:50 11.1 93.8 1007.0 3.8 SW 12.7 SW 0.0 4.2
05:55 11.2 93.2 1008.0 3.5 SW 7.4 SSW 0.0 9.7
06:00 11.6 91.5 1007.0 7.1 SW 11.6 SSW 0.0 14.8
06:05 12.5 82.7 1007.0 7.4 SSW 10.6 S 0.0 16.8
06:10 13.0 75.6 1007.0 8.6 SSW 13.8 SSW 0.0 19.4
06:15 13.3 73.2 1007.0 7.1 SW 16.2 SW 0.0 24.8
06:20 13.2 73.5 1007.0 5.2 SW 9.2 S 0.0 30.5
06:25 13.3 72.2 1008.0 5.6 SW 13.4 SW 0.0 31.0
06:30 13.5 70.7 1007.0 5.6 SW 10.9 SW 0.0 30.7
06:35 13.5 70.4 1007.0 5.1 SW 9.9 SSW 0.0 31.1
06:40 13.5 70.5 1007.0 3.6 SW 7.4 SSW 0.0 30.9
06:45 13.5 69.8 1007.0 5.1 SW 10.2 SW 0.0 32.8
06:50 13.6 68.8 1007.0 7.4 SSW 13.4 SSW 0.0 34.7
06:55 13.7 69.8 1007.0 4.8 SW 10.2 SW 0.0 39.2
07:00 13.6 70.0 1007.0 5.5 SSW 11.6 SSW 0.0 61.7
07:05 13.8 67.8 1007.0 6.0 SSW 10.2 S 0.0 53.6
07:10 14.0 67.2 1007.0 3.3 S 9.5 SSE 0.0 54.9
07:15 14.1 67.1 1007.0 5.5 SSW 9.9 SSW 0.0 58.5
07:20 14.1 66.3 1007.0 7.4 SSW 12.7 SSW 0.0 60.2
07:25 14.2 65.1 1008.0 7.2 SSW 13.4 S 0.0 70.1
07:30 14.3 64.6 1007.0 5.4 SSW 10.6 S 0.0 83.5
07:35 14.4 66.8 1007.0 1.8 SW 6.4 WSW 0.0 88.8
07:40 14.3 67.1 1007.0 1.5 SW 4.6 SW 0.0 90.6
07:45 14.4 65.4 1007.0 6.7 SSW 14.1 SW 0.0 91.0
07:50 14.6 63.9 1007.0 3.0 SW 8.5 SSW 0.0 91.1
07:55 14.7 63.2 1007.0 5.0 SSW 14.5 S 0.0 107.8
08:00 14.8 63.4 1007.0 5.1 SW 10.9 SSW 0.0 130.7
08:05 14.9 62.3 1007.0 7.6 SSW 18.3 SW 0.0 131.6
08:10 15.0 61.4 1007.0 7.2 SSW 16.2 SW 0.0 126.4
08:15 15.1 60.8 1007.0 5.6 S 10.9 SSE 0.0 131.6
08:20 15.2 61.2 1007.0 3.2 SW 9.9 SSW 0.0 126.0
08:25 15.3 59.8 1008.0 6.3 SSW 16.6 SSW 0.0 110.7
08:30 15.3 60.2 1007.0 5.8 SW 13.4 SSW 0.0 111.9
08:35 15.2 60.3 1007.0 7.1 SSW 15.9 SSW 0.0 117.0
08:40 15.2 60.5 1007.0 8.4 SSW 15.5 SW 0.0 115.4
08:45 15.2 60.7 1007.0 9.9 SSW 16.6 S 0.0 113.1
08:50 15.1 60.7 1007.0 10.1 SSW 21.5 SSW 0.0 129.2
08:55 15.1 61.4 1008.0 9.6 SW 18.0 WSW 0.0 184.1
09:00 15.2 60.9 1007.0 6.3 SSW 15.5 SSW 0.0 249.8
09:05 15.6 59.6 1007.0 3.2 ESE 9.5 N 0.0 335.3
09:10 16.1 57.9 1007.0 6.4 SSW 14.1 SSW 0.0 420.0
09:15 16.5 57.2 1007.0 8.0 SSW 20.8 SSW 0.0 317.3
09:20 16.2 57.0 1007.0 9.0 SSW 21.9 SW 0.0 224.4
09:25 16.2 57.3 1007.0 7.0 SSW 13.8 S 0.0 227.7
09:30 16.3 56.7 1007.0 8.1 SSW 15.9 SW 0.0 261.7
09:35 16.7 56.4 1007.0 3.8 NW 14.1 WSW 0.0 468.0
09:40 17.4 54.4 1007.0 3.5 SSE 14.1 SSW 0.0 572.4
09:45 17.9 52.0 1007.0 9.5 SSW 19.1 SW 0.0 384.4
09:50 17.5 52.1 1007.0 10.3 SSW 21.2 SSW 0.0 242.7
09:55 17.2 53.2 1007.0 9.9 SW 18.3 SSW 0.0 240.1
10:00 17.2 53.9 1007.0 8.5 SW 19.4 SSW 0.0 310.6
10:05 17.4 53.0 1007.0 8.5 SSW 15.5 SW 0.0 344.3
10:10 17.5 52.6 1007.0 9.3 SW 18.0 SSW 0.0 422.5
10:15 17.7 52.2 1007.0 8.3 SW 21.5 SSW 0.0 388.7
10:20 17.8 51.8 1007.0 7.4 SSW 15.5 SSW 0.0 332.9
10:25 18.0 51.5 1007.0 1.2 SE 5.6 ENE 0.0 389.9
10:30 18.6 50.8 1007.0 2.5 SSW 8.5 S 0.0 395.5
10:35 18.7 49.5 1007.0 3.4 SW 9.9 SSW 0.0 395.3
10:40 18.8 49.2 1007.0 4.1 SSW 9.5 WSW 0.0 589.0
10:45 19.1 47.5 1007.0 3.9 S 12.7 SSW 0.0 729.2
10:50 19.1 47.4 1007.0 5.1 SW 10.9 SSW 0.0 525.1
10:55 19.3 47.2 1008.0 4.7 ENE 10.6 NE 0.0 755.3
11:00 19.4 45.7 1007.0 6.4 E 24.7 ENE 0.0 451.0
11:05 18.8 47.2 1007.0 9.9 ENE 20.5 NE 0.0 406.9
11:10 18.8 48.4 1007.0 7.4 ENE 16.2 NE 0.0 511.5
11:15 19.0 47.9 1007.0 9.4 ENE 16.6 ENE 0.0 510.7
11:20 18.9 47.5 1007.0 7.7 ENE 15.2 ENE 0.0 317.0
11:25 18.6 48.8 1008.0 6.7 ENE 14.8 ESE 0.0 341.7
11:30 18.7 48.4 1007.0 8.4 NE 19.8 NNE 0.0 349.1
11:35 18.9 50.7 1007.0 6.0 ENE 19.4 ENE 0.0 337.2
11:40 18.6 60.7 1007.0 14.1 NE 23.3 ENE 0.0 319.1
11:45 17.8 65.6 1007.0 10.8 ENE 20.5 ENE 0.0 259.0
11:50 17.6 66.9 1007.0 9.6 NE 19.8 NE 0.0 281.8
11:55 17.5 67.9 1007.0 8.5 ENE 20.5 ENE 0.0 297.1
12:00 17.5 68.2 1007.0 6.9 ENE 16.2 ENE 0.0 270.1
12:05 17.5 67.3 1007.0 3.8 NNE 11.3 N 0.0 231.2
12:10 17.7 67.4 1007.0 6.5 NE 13.1 NNE 0.0 198.3
12:15 17.5 67.0 1007.0 8.8 NE 15.2 ENE 0.0 189.0
12:20 17.3 67.9 1007.0 5.5 ENE 12.7 NE 0.0 215.7
12:25 17.4 69.1 1007.0 5.1 NE 12.0 ENE 0.0 271.1
12:30 17.5 69.2 1007.0 6.7 NE 19.4 ENE 0.0 223.2
12:35 17.3 68.6 1006.0 5.6 ENE 15.9 NNE 0.0 166.3
12:40 17.2 70.1 1007.0 5.2 NE 13.1 ENE 0.0 298.0
12:45 17.4 70.9 1006.0 3.3 ENE 10.9 ENE 0.0 240.2
12:50 17.0 70.6 1006.0 8.0 ENE 13.1 NE 0.0 193.4
12:55 17.0 71.8 1007.0 8.1 ENE 17.3 NE 0.0 180.5
13:00 16.9 71.4 1006.0 4.8 E 12.7 ENE 0.0 135.5
13:05 16.8 72.5 1006.0 4.2 ENE 10.6 ENE 0.0 141.7
13:10 16.8 73.6 1007.0 4.8 ENE 15.9 NE 0.0 108.0
13:15 16.6 73.7 1006.0 8.7 NE 16.2 ENE 0.0 95.1
13:20 16.4 74.3 1006.0 3.1 E 9.9 ENE 0.0 119.7
13:25 16.4 73.9 1007.0 5.7 ENE 10.6 ENE 0.0 129.5
13:30 16.5 75.0 1006.0 2.6 NE 7.8 ENE 0.0 131.5
13:35 16.6 75.0 1006.0 5.3 NNE 13.8 NE 0.0 81.5
13:40 16.4 75.0 1006.0 3.0 NNE 11.6 N 0.0 48.5
13:45 16.3 75.4 1006.0 1.9 NE 4.9 ENE 0.0 38.3
13:50 16.2 75.7 1006.0 0.2 NNW 1.8 WNW 0.0 47.7
13:55 16.2 76.0 1007.0 3.2 NE 7.4 ENE 0.0 82.7
14:00 16.2 76.1 1007.0 1.9 NE 6.4 NNE 0.0 102.7
14:05 16.3 75.9 1006.0 4.3 NE 8.8 NE 0.0 100.5
14:10 16.3 75.9 1007.0 4.1 NNE 9.9 ENE 0.0 149.7
14:15 16.4 75.2 1007.0 2.1 NNW 5.3 NNW 0.0 173.2
14:20 16.6 73.8 1006.0 2.6 E 5.3 ENE 0.0 185.8
14:25 16.5 73.6 1007.0 4.2 ENE 7.4 ENE 0.0 132.6
14:30 16.6 74.2 1006.0 4.1 NE 7.4 ENE 0.0 103.0
14:35 16.6 72.7 1006.0 0.8 NE 4.6 NNE 0.0 140.8
14:40 16.7 72.9 1007.0 3.3 NE 8.5 ENE 0.0 144.0
14:45 16.7 72.2 1006.0 5.2 ENE 11.3 E 0.0 160.2
14:50 16.7 72.1 1006.0 3.0 ENE 7.8 ENE 0.0 169.2
14:55 16.7 72.9 1007.0 6.3 ENE 13.1 ENE 0.0 152.9
15:00 16.6 72.6 1006.0 6.9 ENE 11.3 ENE 0.0 105.5
15:05 16.5 73.0 1007.0 5.0 NE 8.8 NE 0.0 74.4
15:10 16.6 73.2 1007.0 5.1 NE 11.3 NE 0.0 48.7
15:15 16.4 74.0 1006.0 6.7 NE 12.3 NE 0.0 38.8
15:20 16.1 74.8 1007.0 6.8 NE 11.6 NNE 0.0 31.3
15:25 15.8 75.6 1007.0 4.5 NNE 11.3 N 0.0 25.8
15:30 15.7 76.2 1006.0 5.1 NNE 10.9 NE 0.0 29.9
15:35 15.5 75.9 1007.0 6.3 NNE 17.3 NE 0.0 31.4
15:40 15.4 75.6 1007.0 4.4 NE 11.3 ENE 0.0 15.2
15:45 15.3 75.5 1007.0 4.0 NE 7.8 ENE 0.0 5.1
15:50 15.1 75.4 1007.0 3.1 ENE 6.4 ENE 0.0 5.0
15:55 15.1 75.9 1007.0 0.6 NE 4.9 ENE 0.0 8.7
16:00 15.1 77.5 1007.0 1.0 SSE 5.3 SE 0.3 15.1
16:05 15.0 79.3 1007.0 2.6 SW 5.6 WSW 0.2 41.2
16:10 14.8 80.9 1007.0 1.6 SE 3.9 SE 0.0 71.7
16:15 14.8 83.3 1007.0 0.7 NW 2.5 NW 0.0 29.1
16:20 14.6 85.6 1007.0 1.9 N 3.9 NNW 0.0 19.3
16:25 14.3 85.4 1007.0 4.6 N 8.8 N 0.0 12.8
16:30 13.9 85.9 1007.0 2.5 NNE 6.4 NNE 0.0 10.6
16:35 13.8 86.7 1007.0 2.8 NNE 8.1 NE 0.0 7.5
16:40 13.7 87.2 1007.0 2.4 NE 4.6 NNE 0.0 5.9
16:45 13.4 85.1 1007.0 5.9 NE 11.6 E 0.0 5.3
16:50 13.4 85.8 1007.0 2.8 NE 5.6 NNE 0.0 5.5
16:55 13.3 86.2 1008.0 2.3 NNE 7.4 NNE 0.0 6.0
17:00 13.1 85.8 1007.0 2.7 NE 7.4 ENE 0.0 6.2
17:05 13.0 85.3 1008.0 2.1 NNE 8.8 ENE 0.0 6.7
17:10 12.9 84.7 1008.0 2.9 NNE 8.8 NE 0.0 7.3
17:15 13.0 85.1 1008.0 1.4 WNW 3.9 NNE 0.0 4.9
17:20 13.0 86.0 1008.0 0.0 SW 0.4 WSW 0.0 2.6
17:25 13.0 87.0 1009.0 0.0 WSW 0.7 WSW 0.0 1.2
17:30 12.9 88.3 1008.0 0.0 SW 0.4 SSW 0.0 0.5
17:35 12.8 88.9 1008.0 0.0 NW 0.4 WNW 0.0 0.4
17:40 12.9 90.0 1008.0 0.7 WSW 3.5 WSW 0.0 0.1
17:45 12.9 90.3 1008.0 3.4 WSW 6.7 SW 0.0 0.1
17:50 12.8 90.6 1008.0 2.2 SW 5.3 WSW 0.2 0.0
Máxima 19.4 93.8 1010.0 14.1 NE 24.7 ENE 0.3 755.3
Mínima 10.9 45.7 1006.0
Total 0.7